createdAt,value
2018-02-25T00:00:03.632Z,6.40
2018-02-25T00:00:41.783Z,5.80
2018-02-25T00:01:17.011Z,6.70
2018-02-25T00:01:52.125Z,8.30
2018-02-25T00:02:27.783Z,9.70
2018-02-25T00:03:03.893Z,7.20
2018-02-25T00:03:39.238Z,6.50
2018-02-25T00:04:14.749Z,5.70
2018-02-25T00:04:55.761Z,5.80
2018-02-25T00:05:30.783Z,8.80
2018-02-25T00:06:05.871Z,11.50
2018-02-25T00:06:41.397Z,8.70
2018-02-25T00:07:16.611Z,7.70
2018-02-25T00:07:51.939Z,7.60
2018-02-25T00:08:27.174Z,7.50
2018-02-25T00:09:02.100Z,7.40
2018-02-25T00:09:37.518Z,7.40
2018-02-25T00:10:12.807Z,6.20
2018-02-25T00:10:51.056Z,5.70
2018-02-25T00:11:26.972Z,8.90
2018-02-25T00:12:02.474Z,7.70
2018-02-25T00:12:37.916Z,6.70
2018-02-25T00:13:13.342Z,7.20
2018-02-25T00:13:48.681Z,6.30
2018-02-25T00:14:24.322Z,7.40
2018-02-25T00:14:59.606Z,9.40
2018-02-25T00:15:35.017Z,9.30
2018-02-25T00:16:10.344Z,7.30
2018-02-25T00:16:46.561Z,6.90
2018-02-25T00:17:21.977Z,7.80
2018-02-25T00:17:57.198Z,8.00
2018-02-25T00:18:32.563Z,7.00
2018-02-25T00:19:07.898Z,7.90
2018-02-25T00:19:43.059Z,8.10
2018-02-25T00:20:18.589Z,7.10
2018-02-25T00:20:53.947Z,6.80
2018-02-25T00:21:29.505Z,6.10
2018-02-25T00:22:04.811Z,6.30
2018-02-25T00:22:40.265Z,6.50
2018-02-25T00:23:15.597Z,6.80
2018-02-25T00:23:50.932Z,8.40
2018-02-25T00:24:26.376Z,6.00
2018-02-25T00:25:01.622Z,6.80
2018-02-25T00:25:39.338Z,9.10
2018-02-25T00:26:14.455Z,9.70
2018-02-25T00:26:49.867Z,9.80
2018-02-25T00:27:25.415Z,6.80
2018-02-25T00:28:00.608Z,5.90
2018-02-25T00:28:35.929Z,7.60
2018-02-25T00:29:11.138Z,7.40
2018-02-25T00:29:46.876Z,8.90
2018-02-25T00:30:22.379Z,9.00
2018-02-25T00:30:58.371Z,6.80
2018-02-25T00:31:33.693Z,6.00
2018-02-25T00:32:09.105Z,7.50
2018-02-25T00:32:44.653Z,10.30
2018-02-25T00:33:19.823Z,10.10
2018-02-25T00:33:55.227Z,9.00
2018-02-25T00:34:30.571Z,8.70
2018-02-25T00:35:05.970Z,7.30
2018-02-25T00:35:45.938Z,7.70
2018-02-25T00:36:21.144Z,8.10
2018-02-25T00:36:56.453Z,7.70
2018-02-25T00:37:31.910Z,6.70
2018-02-25T00:38:07.017Z,9.70
2018-02-25T00:38:43.294Z,6.70
2018-02-25T00:39:18.525Z,6.00
2018-02-25T00:39:54.151Z,7.50
2018-02-25T00:40:29.803Z,8.00
2018-02-25T00:41:05.446Z,8.80
2018-02-25T00:41:40.611Z,9.10
2018-02-25T00:42:16.009Z,8.00
2018-02-25T00:42:51.409Z,8.00
2018-02-25T00:43:26.913Z,8.00
2018-02-25T00:44:01.949Z,7.50
2018-02-25T00:44:37.380Z,6.60
2018-02-25T00:45:12.694Z,6.40
2018-02-25T00:45:48.213Z,7.60
2018-02-25T00:46:23.976Z,7.00
2018-02-25T00:46:59.407Z,7.90
2018-02-25T00:47:34.768Z,7.10
2018-02-25T00:48:10.363Z,7.20
2018-02-25T00:48:45.680Z,7.30
2018-02-25T00:49:21.103Z,6.60
2018-02-25T00:49:56.409Z,6.50
2018-02-25T00:50:32.163Z,6.90
2018-02-25T00:51:07.291Z,9.30
2018-02-25T00:51:42.736Z,8.10
2018-02-25T00:52:18.251Z,9.40
2018-02-25T00:52:53.560Z,8.50
2018-02-25T00:53:28.926Z,7.80
2018-02-25T00:54:04.255Z,7.70
2018-02-25T00:54:39.573Z,7.20
2018-02-25T00:55:14.772Z,8.70
2018-02-25T00:55:50.718Z,7.00
2018-02-25T00:56:26.023Z,7.70
2018-02-25T00:57:01.241Z,10.90
2018-02-25T00:57:36.776Z,7.70
2018-02-25T00:58:11.788Z,6.60
2018-02-25T00:58:47.203Z,7.30
2018-02-25T00:59:22.419Z,6.40
2018-02-25T00:59:57.726Z,6.40
2018-02-25T01:00:33.092Z,6.60
2018-02-25T01:01:08.805Z,6.80
2018-02-25T01:01:44.167Z,6.30
2018-02-25T01:02:19.517Z,6.60
2018-02-25T01:02:54.981Z,5.90
2018-02-25T01:03:30.645Z,9.70
2018-02-25T01:04:05.854Z,8.90
2018-02-25T01:04:41.195Z,7.20
2018-02-25T01:05:16.305Z,8.90
2018-02-25T01:05:51.530Z,8.10
2018-02-25T01:06:27.168Z,7.60
2018-02-25T01:07:02.665Z,12.10
2018-02-25T01:07:38.139Z,9.40
2018-02-25T01:08:13.684Z,8.60
2018-02-25T01:08:49.129Z,7.70
2018-02-25T01:09:24.681Z,7.40
2018-02-25T01:10:00.011Z,8.80
2018-02-25T01:10:35.348Z,7.80
2018-02-25T01:11:10.546Z,8.30
2018-02-25T01:11:45.975Z,7.60
2018-02-25T01:12:21.218Z,6.90
2018-02-25T01:12:56.580Z,7.90
2018-02-25T01:13:32.116Z,7.50
2018-02-25T01:14:07.715Z,7.70
2018-02-25T01:14:42.738Z,10.50
2018-02-25T01:15:18.198Z,9.00
2018-02-25T01:15:55.026Z,9.20
2018-02-25T01:16:30.277Z,8.60
2018-02-25T01:17:05.479Z,6.40
2018-02-25T01:17:41.123Z,7.50
2018-02-25T01:18:16.450Z,6.70
2018-02-25T01:18:51.908Z,6.40
2018-02-25T01:19:27.325Z,7.50
2018-02-25T01:20:02.632Z,7.70
2018-02-25T01:20:38.584Z,8.50
2018-02-25T01:21:14.009Z,9.00
2018-02-25T01:21:49.364Z,9.20
2018-02-25T01:22:24.794Z,6.30
2018-02-25T01:23:00.209Z,7.80
2018-02-25T01:23:35.776Z,6.50
2018-02-25T01:24:10.999Z,9.10
2018-02-25T01:24:46.914Z,8.20
2018-02-25T01:25:22.445Z,7.50
2018-02-25T01:25:58.079Z,6.70
2018-02-25T01:26:33.530Z,6.90
2018-02-25T01:27:09.045Z,8.10
2018-02-25T01:27:44.489Z,9.20
2018-02-25T01:28:20.250Z,8.50
2018-02-25T01:28:56.340Z,8.20
2018-02-25T01:29:31.656Z,6.90
2018-02-25T01:30:06.978Z,7.60
2018-02-25T01:30:45.144Z,7.50
2018-02-25T01:31:20.673Z,8.60
2018-02-25T01:31:55.958Z,7.60
2018-02-25T01:32:31.800Z,9.20
2018-02-25T01:33:07.014Z,10.50
2018-02-25T01:33:42.660Z,8.70
2018-02-25T01:34:18.699Z,9.00
2018-02-25T01:34:53.850Z,9.00
2018-02-25T01:35:29.177Z,9.40
2018-02-25T01:36:04.517Z,9.00
2018-02-25T01:36:40.463Z,6.90
2018-02-25T01:37:16.107Z,7.90
2018-02-25T01:37:51.328Z,8.40
2018-02-25T01:38:26.792Z,7.30
2018-02-25T01:39:01.771Z,6.60
2018-02-25T01:39:37.552Z,8.20
2018-02-25T01:40:12.777Z,7.30
2018-02-25T01:40:48.412Z,6.60
2018-02-25T01:41:24.058Z,7.50
2018-02-25T01:41:59.450Z,7.90
2018-02-25T01:42:35.186Z,7.80
2018-02-25T01:43:10.404Z,8.90
2018-02-25T01:43:47.232Z,9.10
2018-02-25T01:44:22.487Z,7.50
2018-02-25T01:44:58.231Z,10.40
2018-02-25T01:45:33.676Z,9.40
2018-02-25T01:46:09.169Z,5.80
2018-02-25T01:46:44.390Z,6.50
2018-02-25T01:47:19.940Z,6.60
2018-02-25T01:47:55.711Z,8.20
2018-02-25T01:48:31.208Z,12.90
2018-02-25T01:49:06.557Z,11.10
2018-02-25T01:49:43.218Z,7.10
2018-02-25T01:50:18.473Z,8.50
2018-02-25T01:50:57.115Z,8.60
2018-02-25T01:51:32.187Z,8.40
2018-02-25T01:52:07.503Z,8.50
2018-02-25T01:52:42.658Z,7.80
2018-02-25T01:53:17.892Z,7.60
2018-02-25T01:53:53.153Z,6.80
2018-02-25T01:54:28.633Z,7.70
2018-02-25T01:55:04.455Z,7.60
2018-02-25T01:55:40.409Z,7.30
2018-02-25T01:56:15.737Z,9.90
2018-02-25T01:56:51.006Z,8.30
2018-02-25T01:57:26.530Z,8.50
2018-02-25T01:58:02.125Z,7.90
2018-02-25T01:58:38.062Z,8.70
2018-02-25T01:59:13.377Z,8.90
2018-02-25T01:59:48.746Z,8.90
2018-02-25T02:00:24.112Z,8.10
2018-02-25T02:01:00.322Z,7.30
2018-02-25T02:01:35.837Z,7.90
2018-02-25T02:02:11.033Z,6.30
2018-02-25T02:02:46.475Z,6.70
2018-02-25T02:03:21.754Z,7.40
2018-02-25T02:03:57.051Z,6.10
2018-02-25T02:04:32.424Z,5.20
2018-02-25T02:05:08.052Z,6.10
2018-02-25T02:05:43.231Z,7.70
2018-02-25T02:06:18.863Z,10.00
2018-02-25T02:06:54.284Z,8.80
2018-02-25T02:07:29.529Z,8.00
2018-02-25T02:08:04.743Z,6.60
2018-02-25T02:08:40.328Z,7.40
2018-02-25T02:09:15.746Z,7.20
2018-02-25T02:09:54.291Z,7.80
2018-02-25T02:10:29.454Z,7.80
2018-02-25T02:11:04.972Z,7.60
2018-02-25T02:11:41.111Z,10.50
2018-02-25T02:12:16.744Z,9.40
2018-02-25T02:12:52.173Z,5.40
2018-02-25T02:13:27.513Z,7.30
2018-02-25T02:14:02.941Z,9.70
2018-02-25T02:14:38.587Z,9.90
2018-02-25T02:15:13.856Z,7.80
2018-02-25T02:15:52.906Z,8.60
2018-02-25T02:16:28.324Z,8.90
2018-02-25T02:17:03.862Z,9.50
2018-02-25T02:17:39.787Z,10.20
2018-02-25T02:18:15.205Z,9.40
2018-02-25T02:18:50.535Z,7.30
2018-02-25T02:19:26.079Z,10.20
2018-02-25T02:20:01.589Z,8.60
2018-02-25T02:20:37.830Z,7.30
2018-02-25T02:21:13.350Z,7.10
2018-02-25T02:21:48.694Z,6.60
2018-02-25T02:22:23.926Z,7.40
2018-02-25T02:22:59.420Z,8.10
2018-02-25T02:23:34.854Z,8.70
2018-02-25T02:24:10.379Z,9.60
2018-02-25T02:24:45.808Z,10.10
2018-02-25T02:25:21.560Z,7.40
2018-02-25T02:25:58.188Z,8.70
2018-02-25T02:26:33.484Z,9.00
2018-02-25T02:27:08.581Z,8.30
2018-02-25T02:27:44.212Z,8.30
2018-02-25T02:28:19.445Z,7.30
2018-02-25T02:28:54.767Z,5.80
2018-02-25T02:29:30.004Z,6.10
2018-02-25T02:30:05.148Z,7.70
2018-02-25T02:30:43.705Z,7.80
2018-02-25T02:31:19.330Z,8.30
2018-02-25T02:31:54.648Z,9.30
2018-02-25T02:32:30.187Z,10.70
2018-02-25T02:33:05.285Z,8.80
2018-02-25T02:33:41.438Z,8.50
2018-02-25T02:34:18.941Z,7.20
2018-02-25T02:34:54.257Z,10.30
2018-02-25T02:35:29.772Z,10.80
2018-02-25T02:36:05.339Z,8.20
2018-02-25T02:36:41.317Z,8.80
2018-02-25T02:37:16.844Z,11.10
2018-02-25T02:37:52.498Z,9.10
2018-02-25T02:38:27.744Z,9.80
2018-02-25T02:39:02.842Z,11.30
2018-02-25T02:39:38.485Z,8.80
2018-02-25T02:40:13.708Z,7.10
2018-02-25T02:40:50.607Z,8.00
2018-02-25T02:41:26.048Z,8.20
2018-02-25T02:42:01.555Z,7.80
2018-02-25T02:42:37.089Z,8.10
2018-02-25T02:43:12.514Z,7.30
2018-02-25T02:43:47.647Z,7.90
2018-02-25T02:44:22.881Z,7.30
2018-02-25T02:45:01.203Z,8.00
2018-02-25T02:45:37.827Z,7.50
2018-02-25T02:46:13.255Z,7.80
2018-02-25T02:46:48.689Z,9.50
2018-02-25T02:47:24.051Z,10.60
2018-02-25T02:47:59.402Z,8.30
2018-02-25T02:48:34.754Z,7.10
2018-02-25T02:49:10.451Z,8.70
2018-02-25T02:49:45.979Z,8.50
2018-02-25T02:50:21.353Z,9.30
2018-02-25T02:50:56.650Z,8.10
2018-02-25T02:51:32.568Z,8.90
2018-02-25T02:52:07.946Z,9.50
2018-02-25T02:52:43.813Z,8.60
2018-02-25T02:53:19.440Z,10.00
2018-02-25T02:53:54.756Z,7.10
2018-02-25T02:54:30.080Z,6.20
2018-02-25T02:55:05.600Z,8.20
2018-02-25T02:55:44.160Z,7.20
2018-02-25T02:56:19.506Z,8.60
2018-02-25T02:56:55.041Z,10.20
2018-02-25T02:57:30.477Z,6.60
2018-02-25T02:58:05.692Z,7.80
2018-02-25T02:58:41.240Z,10.50
2018-02-25T02:59:16.340Z,8.60
2018-02-25T02:59:52.172Z,7.80
2018-02-25T03:00:27.898Z,8.00
2018-02-25T03:01:04.037Z,7.70
2018-02-25T03:01:39.814Z,9.10
2018-02-25T03:02:15.342Z,9.60
2018-02-25T03:02:50.783Z,8.50
2018-02-25T03:03:25.989Z,8.70
2018-02-25T03:04:01.389Z,8.90
2018-02-25T03:04:36.877Z,8.40
2018-02-25T03:05:12.290Z,8.70
2018-02-25T03:05:49.528Z,9.20
2018-02-25T03:06:24.790Z,9.20
2018-02-25T03:07:00.077Z,10.70
2018-02-25T03:07:35.753Z,10.60
2018-02-25T03:08:10.935Z,9.70
2018-02-25T03:08:46.469Z,8.40
2018-02-25T03:09:21.910Z,8.40
2018-02-25T03:09:57.328Z,8.80
2018-02-25T03:10:32.746Z,8.10
2018-02-25T03:11:08.087Z,8.60
2018-02-25T03:11:43.420Z,8.50
2018-02-25T03:12:18.901Z,7.30
2018-02-25T03:12:54.229Z,7.50
2018-02-25T03:13:29.689Z,8.40
2018-02-25T03:14:05.241Z,10.50
2018-02-25T03:14:40.989Z,10.80
2018-02-25T03:15:17.202Z,7.40
2018-02-25T03:15:52.826Z,6.70
2018-02-25T03:16:28.072Z,7.20
2018-02-25T03:17:03.377Z,8.90
2018-02-25T03:17:39.057Z,8.50
2018-02-25T03:18:14.269Z,7.20
2018-02-25T03:18:49.717Z,9.20
2018-02-25T03:19:24.976Z,8.30
2018-02-25T03:20:00.190Z,6.30
2018-02-25T03:20:35.730Z,10.00
2018-02-25T03:21:11.233Z,10.60
2018-02-25T03:21:46.588Z,8.60
2018-02-25T03:22:21.913Z,6.80
2018-02-25T03:22:57.242Z,9.20
2018-02-25T03:23:32.567Z,8.40
2018-02-25T03:24:07.999Z,7.80
2018-02-25T03:24:43.437Z,8.60
2018-02-25T03:25:18.742Z,7.60
2018-02-25T03:25:54.359Z,9.60
2018-02-25T03:26:29.604Z,9.70
2018-02-25T03:27:05.107Z,9.30
2018-02-25T03:27:40.953Z,9.40
2018-02-25T03:28:16.049Z,7.90
2018-02-25T03:28:51.579Z,6.10
2018-02-25T03:29:27.019Z,7.30
2018-02-25T03:30:02.213Z,9.00
2018-02-25T03:30:37.941Z,9.20
2018-02-25T03:31:13.427Z,9.20
2018-02-25T03:31:48.476Z,8.60
2018-02-25T03:32:23.829Z,8.60
2018-02-25T03:32:59.126Z,8.90
2018-02-25T03:33:34.547Z,9.30
2018-02-25T03:34:09.950Z,11.40
2018-02-25T03:34:45.341Z,11.20
2018-02-25T03:35:20.775Z,9.30
2018-02-25T03:35:56.318Z,8.20
2018-02-25T03:36:31.660Z,10.10
2018-02-25T03:37:07.171Z,9.70
2018-02-25T03:37:42.718Z,9.40
2018-02-25T03:38:17.937Z,8.80
2018-02-25T03:38:53.187Z,9.50
2018-02-25T03:39:28.493Z,9.30
2018-02-25T03:40:03.925Z,9.80
2018-02-25T03:40:39.873Z,10.30
2018-02-25T03:41:15.291Z,10.20
2018-02-25T03:41:50.636Z,9.80
2018-02-25T03:42:26.067Z,7.90
2018-02-25T03:43:01.492Z,10.00
2018-02-25T03:43:36.714Z,11.00
2018-02-25T03:44:12.156Z,10.40
2018-02-25T03:44:47.408Z,10.70
2018-02-25T03:45:22.647Z,8.60
2018-02-25T03:45:58.135Z,7.10
2018-02-25T03:46:33.212Z,8.10
2018-02-25T03:47:08.392Z,10.40
2018-02-25T03:47:43.844Z,12.60
2018-02-25T03:48:19.198Z,11.60
2018-02-25T03:48:54.414Z,10.40
2018-02-25T03:49:29.676Z,9.50
2018-02-25T03:50:05.345Z,10.10
2018-02-25T03:50:41.901Z,11.10
2018-02-25T03:51:17.213Z,12.70
2018-02-25T03:51:52.257Z,11.10
2018-02-25T03:52:27.764Z,12.10
2018-02-25T03:53:03.163Z,13.50
2018-02-25T03:53:38.290Z,10.00
2018-02-25T03:54:13.495Z,8.90
2018-02-25T03:54:49.074Z,9.90
2018-02-25T03:55:24.409Z,9.20
2018-02-25T03:56:00.235Z,10.20
2018-02-25T03:56:35.610Z,9.70
2018-02-25T03:57:11.200Z,10.90
2018-02-25T03:57:47.705Z,8.60
2018-02-25T03:58:22.936Z,9.90
2018-02-25T03:58:58.141Z,9.20
2018-02-25T03:59:33.344Z,7.90
2018-02-25T04:00:08.976Z,9.00
2018-02-25T04:00:46.820Z,11.00
2018-02-25T04:01:22.320Z,7.50
2018-02-25T04:01:57.759Z,7.80
2018-02-25T04:02:33.094Z,7.90
2018-02-25T04:03:08.473Z,7.80
2018-02-25T04:03:43.806Z,9.80
2018-02-25T04:04:18.924Z,9.80
2018-02-25T04:04:55.725Z,9.30
2018-02-25T04:05:31.664Z,8.50
2018-02-25T04:06:08.777Z,8.90
2018-02-25T04:06:44.617Z,9.50
2018-02-25T04:07:19.889Z,8.40
2018-02-25T04:07:55.525Z,7.60
2018-02-25T04:08:30.957Z,9.60
2018-02-25T04:09:06.347Z,11.40
2018-02-25T04:09:42.786Z,8.60
2018-02-25T04:10:18.066Z,9.00
2018-02-25T04:10:53.918Z,9.20
2018-02-25T04:11:29.170Z,9.00
2018-02-25T04:12:04.405Z,8.50
2018-02-25T04:12:39.456Z,7.70
2018-02-25T04:13:14.442Z,7.90
2018-02-25T04:13:49.895Z,8.80
2018-02-25T04:14:25.422Z,9.90
2018-02-25T04:15:00.620Z,9.00
2018-02-25T04:15:36.358Z,11.10
2018-02-25T04:16:11.849Z,11.00
2018-02-25T04:16:47.299Z,10.90
2018-02-25T04:17:23.625Z,9.30
2018-02-25T04:17:58.829Z,8.80
2018-02-25T04:18:34.358Z,7.20
2018-02-25T04:19:09.645Z,10.00
2018-02-25T04:19:45.067Z,10.40
2018-02-25T04:20:20.311Z,12.70
2018-02-25T04:20:55.808Z,12.30
2018-02-25T04:21:31.468Z,10.70
2018-02-25T04:22:06.834Z,10.20
2018-02-25T04:22:42.458Z,10.60
2018-02-25T04:23:17.968Z,10.40
2018-02-25T04:23:53.284Z,10.40
2018-02-25T04:24:28.434Z,9.90
2018-02-25T04:25:03.623Z,8.20
2018-02-25T04:25:39.762Z,6.30
2018-02-25T04:26:15.080Z,9.80
2018-02-25T04:26:50.486Z,11.90
2018-02-25T04:27:25.737Z,9.60
2018-02-25T04:28:01.243Z,10.20
2018-02-25T04:28:36.720Z,9.30
2018-02-25T04:29:12.051Z,10.20
2018-02-25T04:29:47.069Z,9.10
2018-02-25T04:30:22.526Z,7.60
2018-02-25T04:30:57.945Z,9.10
2018-02-25T04:31:33.392Z,8.00
2018-02-25T04:32:08.823Z,9.40
2018-02-25T04:32:44.259Z,13.10
2018-02-25T04:33:19.431Z,9.80
2018-02-25T04:33:54.359Z,9.00
2018-02-25T04:34:29.861Z,11.00
2018-02-25T04:35:05.391Z,11.20
2018-02-25T04:35:42.228Z,8.70
2018-02-25T04:36:17.844Z,8.10
2018-02-25T04:36:53.559Z,9.60
2018-02-25T04:37:28.738Z,10.70
2018-02-25T04:38:03.989Z,11.70
2018-02-25T04:38:39.392Z,14.00
2018-02-25T04:39:14.722Z,13.20
2018-02-25T04:39:49.973Z,10.30
2018-02-25T04:40:25.289Z,11.40
2018-02-25T04:41:01.914Z,10.10
2018-02-25T04:41:38.540Z,9.70
2018-02-25T04:42:13.970Z,9.50
2018-02-25T04:42:49.206Z,10.50
2018-02-25T04:43:25.032Z,11.30
2018-02-25T04:44:00.421Z,11.90
2018-02-25T04:44:35.663Z,10.20
2018-02-25T04:45:10.871Z,10.20
2018-02-25T04:45:47.608Z,14.20
2018-02-25T04:46:22.974Z,12.50
2018-02-25T04:46:58.308Z,10.80
2018-02-25T04:47:33.658Z,9.60
2018-02-25T04:48:08.943Z,12.00
2018-02-25T04:48:44.469Z,12.30
2018-02-25T04:49:19.712Z,14.30
2018-02-25T04:49:55.306Z,12.70
2018-02-25T04:50:30.868Z,11.50
2018-02-25T04:51:06.310Z,11.10
2018-02-25T04:51:41.480Z,10.40
2018-02-25T04:52:16.705Z,15.70
2018-02-25T04:52:52.224Z,18.60
2018-02-25T04:53:27.347Z,15.10
2018-02-25T04:54:02.822Z,18.60
2018-02-25T04:54:38.438Z,20.10
2018-02-25T04:55:13.834Z,16.00
2018-02-25T04:55:49.162Z,14.60
2018-02-25T04:56:24.285Z,13.60
2018-02-25T04:56:59.781Z,16.90
2018-02-25T04:57:35.244Z,16.00
2018-02-25T04:58:10.530Z,17.50
2018-02-25T04:58:46.063Z,11.50
2018-02-25T04:59:21.400Z,11.60
2018-02-25T04:59:56.898Z,11.60
2018-02-25T05:00:32.411Z,10.50
2018-02-25T05:01:08.581Z,12.60
2018-02-25T05:01:43.599Z,15.10
2018-02-25T05:02:19.104Z,17.20
2018-02-25T05:02:54.667Z,14.80
2018-02-25T05:03:29.716Z,15.10
2018-02-25T05:04:05.626Z,13.00
2018-02-25T05:04:41.249Z,9.90
2018-02-25T05:05:16.554Z,10.80
2018-02-25T05:05:52.126Z,11.60
2018-02-25T05:06:27.754Z,9.70
2018-02-25T05:07:02.879Z,9.20
2018-02-25T05:07:37.930Z,10.80
2018-02-25T05:08:13.573Z,12.30
2018-02-25T05:08:49.086Z,9.80
2018-02-25T05:09:24.301Z,10.80
2018-02-25T05:09:59.680Z,12.10
2018-02-25T05:10:35.219Z,10.80
2018-02-25T05:11:10.655Z,17.10
2018-02-25T05:11:45.987Z,17.40
2018-02-25T05:12:21.321Z,9.80
2018-02-25T05:12:57.547Z,8.20
2018-02-25T05:13:33.110Z,8.60
2018-02-25T05:14:08.512Z,9.70
2018-02-25T05:14:43.822Z,9.30
2018-02-25T05:15:19.444Z,10.20
2018-02-25T05:15:55.475Z,10.40
2018-02-25T05:16:30.709Z,7.70
2018-02-25T05:17:06.093Z,7.50
2018-02-25T05:17:41.555Z,9.70
2018-02-25T05:18:16.977Z,10.80
2018-02-25T05:18:52.308Z,11.10
2018-02-25T05:19:27.672Z,11.20
2018-02-25T05:20:02.898Z,10.00
2018-02-25T05:20:39.127Z,8.70
2018-02-25T05:21:14.505Z,9.30
2018-02-25T05:21:50.144Z,13.70
2018-02-25T05:22:25.778Z,9.70
2018-02-25T05:23:00.997Z,11.10
2018-02-25T05:23:36.281Z,10.10
2018-02-25T05:24:11.610Z,11.00
2018-02-25T05:24:49.417Z,11.20
2018-02-25T05:25:24.843Z,10.00
2018-02-25T05:26:00.249Z,11.90
2018-02-25T05:26:36.082Z,11.40
2018-02-25T05:27:11.369Z,11.60
2018-02-25T05:27:47.491Z,11.10
2018-02-25T05:28:22.796Z,11.30
2018-02-25T05:28:58.177Z,9.90
2018-02-25T05:29:33.383Z,10.70
2018-02-25T05:30:08.565Z,10.10
2018-02-25T05:30:45.205Z,8.00
2018-02-25T05:31:20.551Z,9.80
2018-02-25T05:31:55.673Z,12.40
2018-02-25T05:32:31.002Z,11.40
2018-02-25T05:33:06.340Z,9.80
2018-02-25T05:33:42.164Z,10.20
2018-02-25T05:34:17.872Z,9.20
2018-02-25T05:34:53.141Z,10.20
2018-02-25T05:35:28.560Z,9.20
2018-02-25T05:36:03.772Z,10.10
2018-02-25T05:36:39.395Z,11.30
2018-02-25T05:37:15.074Z,10.40
2018-02-25T05:37:50.524Z,9.50
2018-02-25T05:38:25.768Z,10.40
2018-02-25T05:39:01.245Z,11.00
2018-02-25T05:39:36.685Z,9.90
2018-02-25T05:40:12.095Z,8.90
2018-02-25T05:40:49.020Z,8.50
2018-02-25T05:41:24.660Z,9.20
2018-02-25T05:42:00.367Z,9.60
2018-02-25T05:42:35.897Z,9.80
2018-02-25T05:43:11.014Z,10.80
2018-02-25T05:43:46.323Z,10.30
2018-02-25T05:44:21.674Z,9.70
2018-02-25T05:44:57.068Z,9.90
2018-02-25T05:45:32.367Z,9.60
2018-02-25T05:46:08.067Z,10.10
2018-02-25T05:46:44.682Z,9.00
2018-02-25T05:47:20.410Z,8.70
2018-02-25T05:47:55.720Z,8.60
2018-02-25T05:48:30.978Z,8.60
2018-02-25T05:49:06.473Z,11.10
2018-02-25T05:49:43.088Z,9.40
2018-02-25T05:50:18.395Z,8.30
2018-02-25T05:50:54.827Z,8.20
2018-02-25T05:51:30.018Z,9.80
2018-02-25T05:52:05.714Z,8.50
2018-02-25T05:52:41.328Z,9.30
2018-02-25T05:53:16.646Z,9.30
2018-02-25T05:53:52.185Z,9.30
2018-02-25T05:54:27.494Z,10.70
2018-02-25T05:55:02.564Z,11.10
2018-02-25T05:55:38.312Z,10.30
2018-02-25T05:56:13.395Z,9.90
2018-02-25T05:56:49.511Z,8.20
2018-02-25T05:57:25.043Z,10.20
2018-02-25T05:58:00.229Z,11.10
2018-02-25T05:58:35.380Z,8.60
2018-02-25T05:59:10.691Z,10.70
2018-02-25T05:59:46.216Z,10.80
2018-02-25T06:00:21.460Z,9.20
2018-02-25T06:00:58.357Z,7.90
2018-02-25T06:01:33.658Z,10.20
2018-02-25T06:02:09.038Z,9.60
2018-02-25T06:02:44.684Z,9.70
2018-02-25T06:03:20.008Z,11.60
2018-02-25T06:03:55.400Z,12.10
2018-02-25T06:04:30.788Z,12.90
2018-02-25T06:05:06.575Z,9.30
2018-02-25T06:05:45.210Z,9.00
2018-02-25T06:06:20.671Z,10.50
2018-02-25T06:06:56.120Z,8.20
2018-02-25T06:07:31.528Z,10.70
2018-02-25T06:08:07.143Z,12.20
2018-02-25T06:08:42.420Z,13.40
2018-02-25T06:09:20.859Z,11.80
2018-02-25T06:09:56.463Z,10.70
2018-02-25T06:10:31.920Z,9.10
2018-02-25T06:11:07.041Z,10.60
2018-02-25T06:11:46.675Z,10.90
2018-02-25T06:12:22.231Z,10.20
2018-02-25T06:12:57.529Z,8.10
2018-02-25T06:13:32.765Z,7.60
2018-02-25T06:14:08.395Z,10.50
2018-02-25T06:14:44.738Z,11.30
2018-02-25T06:15:19.984Z,11.50
2018-02-25T06:15:56.796Z,11.10
2018-02-25T06:16:32.599Z,8.50
2018-02-25T06:17:08.025Z,9.90
2018-02-25T06:17:43.438Z,9.90
2018-02-25T06:18:19.064Z,9.70
2018-02-25T06:18:54.336Z,11.10
2018-02-25T06:19:29.766Z,11.60
2018-02-25T06:20:05.470Z,9.80
2018-02-25T06:20:42.111Z,9.70
2018-02-25T06:21:17.501Z,13.70
2018-02-25T06:21:52.944Z,14.60
2018-02-25T06:22:28.211Z,11.20
2018-02-25T06:23:03.596Z,9.60
2018-02-25T06:23:39.226Z,8.00
2018-02-25T06:24:14.665Z,8.70
2018-02-25T06:24:49.935Z,10.90
2018-02-25T06:25:26.487Z,10.80
2018-02-25T06:26:01.804Z,9.00
2018-02-25T06:26:37.412Z,9.00
2018-02-25T06:27:12.903Z,11.50
2018-02-25T06:27:50.269Z,13.10
2018-02-25T06:28:26.220Z,10.60
2018-02-25T06:29:01.842Z,8.60
2018-02-25T06:29:37.226Z,10.10
2018-02-25T06:30:12.420Z,8.60
2018-02-25T06:30:48.474Z,8.10
2018-02-25T06:31:23.807Z,9.70
2018-02-25T06:31:59.212Z,9.20
2018-02-25T06:32:34.684Z,8.80
2018-02-25T06:33:09.801Z,8.00
2018-02-25T06:33:45.943Z,8.60
2018-02-25T06:34:21.620Z,10.30
2018-02-25T06:34:56.839Z,9.70
2018-02-25T06:35:32.353Z,9.60
2018-02-25T06:36:07.562Z,9.00
2018-02-25T06:36:43.774Z,9.10
2018-02-25T06:37:19.281Z,11.20
2018-02-25T06:37:54.490Z,10.30
2018-02-25T06:38:29.827Z,11.60
2018-02-25T06:39:05.117Z,13.30
2018-02-25T06:39:40.352Z,10.40
2018-02-25T06:40:15.419Z,10.20
2018-02-25T06:40:50.692Z,8.70
2018-02-25T06:41:26.328Z,8.20
2018-02-25T06:42:01.631Z,11.40
2018-02-25T06:42:37.247Z,11.50
2018-02-25T06:43:12.560Z,10.10
2018-02-25T06:43:51.003Z,10.40
2018-02-25T06:44:28.636Z,9.40
2018-02-25T06:45:04.210Z,10.30
2018-02-25T06:45:44.242Z,11.70
2018-02-25T06:46:19.571Z,9.80
2018-02-25T06:46:54.968Z,12.00
2018-02-25T06:47:30.383Z,11.10
2018-02-25T06:48:05.587Z,8.10
2018-02-25T06:48:40.758Z,10.10
2018-02-25T06:49:16.058Z,11.90
2018-02-25T06:49:51.603Z,11.50
2018-02-25T06:50:26.927Z,11.60
2018-02-25T06:51:02.309Z,8.90
2018-02-25T06:51:38.099Z,6.90
2018-02-25T06:52:13.500Z,11.50
2018-02-25T06:52:48.621Z,12.10
2018-02-25T06:53:30.627Z,12.60
2018-02-25T06:54:08.039Z,13.60
2018-02-25T06:54:43.146Z,12.70
2018-02-25T06:55:18.555Z,10.40
2018-02-25T06:55:53.873Z,11.90
2018-02-25T06:56:29.175Z,16.10
2018-02-25T06:57:04.365Z,12.90
2018-02-25T06:57:39.982Z,8.30
2018-02-25T06:58:15.254Z,9.90
2018-02-25T06:58:50.696Z,9.80
2018-02-25T06:59:26.120Z,10.00
2018-02-25T07:00:01.292Z,7.70
2018-02-25T07:00:38.536Z,10.30
2018-02-25T07:01:14.614Z,11.10
2018-02-25T07:01:49.937Z,9.40
2018-02-25T07:02:25.258Z,11.60
2018-02-25T07:03:00.439Z,12.30
2018-02-25T07:03:35.657Z,10.40
2018-02-25T07:04:10.777Z,7.80
2018-02-25T07:04:47.482Z,9.30
2018-02-25T07:05:22.703Z,9.90
2018-02-25T07:05:58.597Z,10.60
2018-02-25T07:06:34.037Z,8.30
2018-02-25T07:07:09.542Z,9.40
2018-02-25T07:07:44.986Z,10.00
2018-02-25T07:08:20.506Z,8.80
2018-02-25T07:08:55.634Z,8.10
2018-02-25T07:09:30.853Z,8.40
2018-02-25T07:10:06.155Z,8.30
2018-02-25T07:10:42.792Z,9.60
2018-02-25T07:11:17.908Z,11.60
2018-02-25T07:11:53.244Z,12.00
2018-02-25T07:12:28.684Z,10.40
2018-02-25T07:13:04.074Z,10.30
2018-02-25T07:13:39.424Z,9.90
2018-02-25T07:14:14.955Z,8.70
2018-02-25T07:14:50.369Z,9.10
2018-02-25T07:15:25.614Z,9.90
2018-02-25T07:16:00.808Z,8.70
2018-02-25T07:16:36.246Z,9.60
2018-02-25T07:17:11.534Z,11.10
2018-02-25T07:17:47.063Z,9.60
2018-02-25T07:18:22.532Z,8.60
2018-02-25T07:18:57.742Z,7.70
2018-02-25T07:19:33.327Z,10.10
2018-02-25T07:20:09.439Z,9.30
2018-02-25T07:20:45.704Z,8.50
2018-02-25T07:21:21.039Z,9.60
2018-02-25T07:21:56.316Z,10.00
2018-02-25T07:22:31.652Z,9.70
2018-02-25T07:23:06.948Z,8.30
2018-02-25T07:23:42.605Z,8.10
2018-02-25T07:24:18.287Z,8.90
2018-02-25T07:24:55.200Z,12.00
2018-02-25T07:25:33.533Z,11.00
2018-02-25T07:26:10.252Z,9.50
2018-02-25T07:26:45.948Z,11.10
2018-02-25T07:27:21.154Z,10.80
2018-02-25T07:27:56.482Z,8.20
2018-02-25T07:28:33.066Z,8.50
2018-02-25T07:29:08.572Z,9.80
2018-02-25T07:29:45.045Z,8.70
2018-02-25T07:30:20.169Z,8.60
2018-02-25T07:30:59.713Z,7.90
2018-02-25T07:31:35.051Z,10.70
2018-02-25T07:32:10.448Z,11.20
2018-02-25T07:32:45.773Z,13.60
2018-02-25T07:33:23.303Z,13.70
2018-02-25T07:33:58.729Z,10.60
2018-02-25T07:34:34.200Z,9.70
2018-02-25T07:35:09.504Z,12.00
2018-02-25T07:35:48.438Z,9.70
2018-02-25T07:36:26.069Z,8.40
2018-02-25T07:37:03.586Z,11.30
2018-02-25T07:37:39.215Z,11.00
2018-02-25T07:38:14.643Z,10.60
2018-02-25T07:38:51.318Z,10.30
2018-02-25T07:39:26.569Z,8.70
2018-02-25T07:40:02.160Z,11.20
2018-02-25T07:40:38.110Z,11.80
2018-02-25T07:41:16.711Z,10.20
2018-02-25T07:41:54.924Z,9.90
2018-02-25T07:42:30.478Z,8.10
2018-02-25T07:43:06.026Z,7.60
2018-02-25T07:43:43.185Z,8.30
2018-02-25T07:44:18.294Z,9.50
2018-02-25T07:44:53.848Z,9.50
2018-02-25T07:45:32.286Z,10.70
2018-02-25T07:46:07.483Z,11.10
2018-02-25T07:46:45.393Z,10.90
2018-02-25T07:47:22.794Z,10.50
2018-02-25T07:47:58.195Z,7.70
2018-02-25T07:48:33.826Z,9.90